sensor_id;sensor_type;location;lat;lon;timestamp;pressure;altitude;pressure_sealevel;temperature
60731;BMP280;46580;52.114;11.674;2022-07-03T00:01:50;101311.53;;;18.16
60731;BMP280;46580;52.114;11.674;2022-07-03T00:04:16;101315.97;;;18.06
60731;BMP280;46580;52.114;11.674;2022-07-03T00:06:44;101312.19;;;18.01
60731;BMP280;46580;52.114;11.674;2022-07-03T00:09:09;101310.53;;;18.00
60731;BMP280;46580;52.114;11.674;2022-07-03T00:11:35;101309.91;;;17.98
60731;BMP280;46580;52.114;11.674;2022-07-03T00:14:01;101311.69;;;17.98
60731;BMP280;46580;52.114;11.674;2022-07-03T00:16:27;101310.47;;;17.92
60731;BMP280;46580;52.114;11.674;2022-07-03T00:18:56;101304.47;;;17.92
60731;BMP280;46580;52.114;11.674;2022-07-03T00:21:33;101308.47;;;17.87
60731;BMP280;46580;52.114;11.674;2022-07-03T00:24:04;101311.06;;;17.87
60731;BMP280;46580;52.114;11.674;2022-07-03T00:26:34;101305.19;;;17.85
60731;BMP280;46580;52.114;11.674;2022-07-03T00:29:02;101305.19;;;17.85
60731;BMP280;46580;52.114;11.674;2022-07-03T00:31:30;101300.91;;;17.84
60731;BMP280;46580;52.114;11.674;2022-07-03T00:34:00;101308.88;;;17.82
60731;BMP280;46580;52.114;11.674;2022-07-03T00:36:29;101293.69;;;17.78
60731;BMP280;46580;52.114;11.674;2022-07-03T00:38:56;101304.41;;;17.75
60731;BMP280;46580;52.114;11.674;2022-07-03T00:41:24;101300.69;;;17.77
60731;BMP280;46580;52.114;11.674;2022-07-03T00:43:53;101294.50;;;18.05
60731;BMP280;46580;52.114;11.674;2022-07-03T00:46:21;101294.31;;;18.23
60731;BMP280;46580;52.114;11.674;2022-07-03T00:48:49;101292.19;;;18.19
60731;BMP280;46580;52.114;11.674;2022-07-03T00:51:24;101291.44;;;18.09
60731;BMP280;46580;52.114;11.674;2022-07-03T00:53:53;101288.97;;;17.90
60731;BMP280;46580;52.114;11.674;2022-07-03T00:56:26;101300.63;;;17.87
60731;BMP280;46580;52.114;11.674;2022-07-03T00:58:56;101283.53;;;17.84
60731;BMP280;46580;52.114;11.674;2022-07-03T01:01:37;101289.69;;;17.83
60731;BMP280;46580;52.114;11.674;2022-07-03T01:04:29;101292.19;;;17.85
60731;BMP280;46580;52.114;11.674;2022-07-03T01:07:07;101289.47;;;17.77
60731;BMP280;46580;52.114;11.674;2022-07-03T01:10:12;101280.50;;;17.62
60731;BMP280;46580;52.114;11.674;2022-07-03T01:13:04;101280.69;;;17.78
60731;BMP280;46580;52.114;11.674;2022-07-03T01:15:44;101277.03;;;17.71
60731;BMP280;46580;52.114;11.674;2022-07-03T01:18:35;101277.47;;;17.84
60731;BMP280;46580;52.114;11.674;2022-07-03T01:21:08;101274.59;;;17.87
60731;BMP280;46580;52.114;11.674;2022-07-03T01:23:51;101278.91;;;17.78
60731;BMP280;46580;52.114;11.674;2022-07-03T01:26:24;101274.13;;;17.74
60731;BMP280;46580;52.114;11.674;2022-07-03T01:28:53;101272.41;;;17.65
60731;BMP280;46580;52.114;11.674;2022-07-03T01:31:23;101270.38;;;17.59
60731;BMP280;46580;52.114;11.674;2022-07-03T01:33:51;101268.66;;;17.50
60731;BMP280;46580;52.114;11.674;2022-07-03T01:36:22;101260.41;;;17.38
60731;BMP280;46580;52.114;11.674;2022-07-03T01:38:51;101263.00;;;17.38
60731;BMP280;46580;52.114;11.674;2022-07-03T01:41:18;101256.06;;;17.46
60731;BMP280;46580;52.114;11.674;2022-07-03T01:43:48;101253.97;;;17.32
60731;BMP280;46580;52.114;11.674;2022-07-03T01:46:17;101254.19;;;17.39
60731;BMP280;46580;52.114;11.674;2022-07-03T01:48:45;101251.13;;;17.26
60731;BMP280;46580;52.114;11.674;2022-07-03T01:51:15;101240.06;;;17.24
60731;BMP280;46580;52.114;11.674;2022-07-03T01:53:49;101239.66;;;17.19
60731;BMP280;46580;52.114;11.674;2022-07-03T01:56:18;101244.88;;;17.19
60731;BMP280;46580;52.114;11.674;2022-07-03T01:58:46;101241.53;;;17.27
60731;BMP280;46580;52.114;11.674;2022-07-03T02:06:40;101244.78;;;17.38
60731;BMP280;46580;52.114;11.674;2022-07-03T02:09:10;101244.19;;;17.44
60731;BMP280;46580;52.114;11.674;2022-07-03T02:11:40;101250.88;;;17.46
60731;BMP280;46580;52.114;11.674;2022-07-03T02:14:13;101244.13;;;17.53
60731;BMP280;46580;52.114;11.674;2022-07-03T02:19:53;101250.59;;;17.66
60731;BMP280;46580;52.114;11.674;2022-07-03T02:22:33;101248.31;;;17.80
60731;BMP280;46580;52.114;11.674;2022-07-03T02:25:22;101245.88;;;17.96
60731;BMP280;46580;52.114;11.674;2022-07-03T02:28:00;101246.75;;;17.70
60731;BMP280;46580;52.114;11.674;2022-07-03T02:30:29;101232.84;;;17.79
60731;BMP280;46580;52.114;11.674;2022-07-03T02:32:59;101237.50;;;17.85
60731;BMP280;46580;52.114;11.674;2022-07-03T02:35:28;101235.53;;;17.87
60731;BMP280;46580;52.114;11.674;2022-07-03T02:38:09;101235.47;;;17.96
60731;BMP280;46580;52.114;11.674;2022-07-03T02:40:55;101228.59;;;17.78
60731;BMP280;46580;52.114;11.674;2022-07-03T02:54:45;101234.28;;;17.90
60731;BMP280;46580;52.114;11.674;2022-07-03T02:57:21;101237.38;;;17.94
60731;BMP280;46580;52.114;11.674;2022-07-03T02:59:56;101234.63;;;17.95
60731;BMP280;46580;52.114;11.674;2022-07-03T03:04:57;101233.63;;;18.13
60731;BMP280;46580;52.114;11.674;2022-07-03T03:07:52;101226.75;;;18.05
60731;BMP280;46580;52.114;11.674;2022-07-03T03:10:18;101233.06;;;18.02
60731;BMP280;46580;52.114;11.674;2022-07-03T03:13:14;101234.03;;;18.01
60731;BMP280;46580;52.114;11.674;2022-07-03T03:18:22;101235.88;;;18.08
60731;BMP280;46580;52.114;11.674;2022-07-03T03:20:49;101233.06;;;18.02
60731;BMP280;46580;52.114;11.674;2022-07-03T03:26:08;101236.34;;;18.04
60731;BMP280;46580;52.114;11.674;2022-07-03T03:28:35;101235.59;;;18.11
60731;BMP280;46580;52.114;11.674;2022-07-03T03:31:01;101230.88;;;18.15
60731;BMP280;46580;52.114;11.674;2022-07-03T03:33:30;101230.19;;;18.05
60731;BMP280;46580;52.114;11.674;2022-07-03T03:35:57;101218.19;;;17.95
60731;BMP280;46580;52.114;11.674;2022-07-03T03:38:24;101212.09;;;18.04
60731;BMP280;46580;52.114;11.674;2022-07-03T03:40:53;101215.13;;;17.99
60731;BMP280;46580;52.114;11.674;2022-07-03T03:43:20;101222.06;;;17.91
60731;BMP280;46580;52.114;11.674;2022-07-03T03:45:46;101223.19;;;17.88
60731;BMP280;46580;52.114;11.674;2022-07-03T03:48:12;101212.09;;;17.87
60731;BMP280;46580;52.114;11.674;2022-07-03T03:50:38;101211.94;;;17.88
60731;BMP280;46580;52.114;11.674;2022-07-03T03:53:04;101210.72;;;18.00
60731;BMP280;46580;52.114;11.674;2022-07-03T03:55:31;101203.75;;;18.00
60731;BMP280;46580;52.114;11.674;2022-07-03T03:57:57;101208.09;;;17.92
60731;BMP280;46580;52.114;11.674;2022-07-03T04:00:23;101216.25;;;17.97
60731;BMP280;46580;52.114;11.674;2022-07-03T04:02:48;101217.38;;;17.94
60731;BMP280;46580;52.114;11.674;2022-07-03T04:05:15;101209.63;;;18.02
60731;BMP280;46580;52.114;11.674;2022-07-03T04:07:41;101206.88;;;18.04
60731;BMP280;46580;52.114;11.674;2022-07-03T04:10:06;101210.31;;;18.04
60731;BMP280;46580;52.114;11.674;2022-07-03T04:12:33;101207.09;;;18.10
60731;BMP280;46580;52.114;11.674;2022-07-03T04:15:04;101207.91;;;18.10
60731;BMP280;46580;52.114;11.674;2022-07-03T04:17:32;101205.66;;;18.15
60731;BMP280;46580;52.114;11.674;2022-07-03T04:19:58;101216.91;;;18.16
60731;BMP280;46580;52.114;11.674;2022-07-03T04:22:33;101216.09;;;18.15
60731;BMP280;46580;52.114;11.674;2022-07-03T04:24:59;101205.25;;;18.27
60731;BMP280;46580;52.114;11.674;2022-07-03T04:27:25;101216.25;;;18.39
60731;BMP280;46580;52.114;11.674;2022-07-03T04:29:52;101204.94;;;18.55
60731;BMP280;46580;52.114;11.674;2022-07-03T04:32:18;101202.69;;;18.60
60731;BMP280;46580;52.114;11.674;2022-07-03T04:34:47;101203.31;;;18.54
60731;BMP280;46580;52.114;11.674;2022-07-03T04:37:13;101200.81;;;18.45
60731;BMP280;46580;52.114;11.674;2022-07-03T04:39:41;101203.47;;;18.53
60731;BMP280;46580;52.114;11.674;2022-07-03T04:42:07;101206.66;;;18.39
60731;BMP280;46580;52.114;11.674;2022-07-03T04:44:33;101208.94;;;18.42
60731;BMP280;46580;52.114;11.674;2022-07-03T04:47:01;101205.13;;;18.61
60731;BMP280;46580;52.114;11.674;2022-07-03T04:49:26;101205.47;;;18.59
60731;BMP280;46580;52.114;11.674;2022-07-03T04:51:52;101197.69;;;18.66
60731;BMP280;46580;52.114;11.674;2022-07-03T04:54:19;101198.28;;;18.61
60731;BMP280;46580;52.114;11.674;2022-07-03T04:56:45;101201.22;;;18.58
60731;BMP280;46580;52.114;11.674;2022-07-03T04:59:12;101196.34;;;18.62
60731;BMP280;46580;52.114;11.674;2022-07-03T05:01:39;101196.88;;;18.99
60731;BMP280;46580;52.114;11.674;2022-07-03T05:04:06;101196.03;;;18.90
60731;BMP280;46580;52.114;11.674;2022-07-03T05:06:31;101200.22;;;19.24
60731;BMP280;46580;52.114;11.674;2022-07-03T05:08:58;101186.91;;;19.50
60731;BMP280;46580;52.114;11.674;2022-07-03T05:11:26;101189.41;;;19.59
60731;BMP280;46580;52.114;11.674;2022-07-03T05:13:52;101188.81;;;19.25
60731;BMP280;46580;52.114;11.674;2022-07-03T05:16:21;101191.31;;;19.50
60731;BMP280;46580;52.114;11.674;2022-07-03T05:18:48;101187.28;;;19.63
60731;BMP280;46580;52.114;11.674;2022-07-03T05:21:13;101179.59;;;19.61
60731;BMP280;46580;52.114;11.674;2022-07-03T05:23:39;101181.41;;;19.69
60731;BMP280;46580;52.114;11.674;2022-07-03T05:26:05;101181.25;;;19.78
60731;BMP280;46580;52.114;11.674;2022-07-03T05:28:32;101182.09;;;19.94
60731;BMP280;46580;52.114;11.674;2022-07-03T05:30:58;101181.25;;;19.78
60731;BMP280;46580;52.114;11.674;2022-07-03T05:33:25;101178.34;;;19.81
60731;BMP280;46580;52.114;11.674;2022-07-03T05:35:51;101162.78;;;20.11
60731;BMP280;46580;52.114;11.674;2022-07-03T05:38:17;101175.81;;;20.42
60731;BMP280;46580;52.114;11.674;2022-07-03T05:41:03;101184.47;;;20.42
60731;BMP280;46580;52.114;11.674;2022-07-03T05:43:29;101169.28;;;20.38
60731;BMP280;46580;52.114;11.674;2022-07-03T05:45:55;101179.41;;;20.33
60731;BMP280;46580;52.114;11.674;2022-07-03T05:48:20;101176.75;;;20.56
60731;BMP280;46580;52.114;11.674;2022-07-03T05:50:47;101180.00;;;20.66
60731;BMP280;46580;52.114;11.674;2022-07-03T05:53:13;101171.81;;;20.69
60731;BMP280;46580;52.114;11.674;2022-07-03T05:55:41;101179.91;;;20.36
60731;BMP280;46580;52.114;11.674;2022-07-03T05:58:07;101185.75;;;20.62
60731;BMP280;46580;52.114;11.674;2022-07-03T06:00:34;101179.72;;;20.61
60731;BMP280;46580;52.114;11.674;2022-07-03T06:03:01;101180.84;;;20.59
60731;BMP280;46580;52.114;11.674;2022-07-03T06:05:27;101180.19;;;20.57
60731;BMP280;46580;52.114;11.674;2022-07-03T06:07:53;101176.28;;;20.53
60731;BMP280;46580;52.114;11.674;2022-07-03T06:10:23;101179.22;;;20.58
60731;BMP280;46580;52.114;11.674;2022-07-03T06:12:49;101175.44;;;20.68
60731;BMP280;46580;52.114;11.674;2022-07-03T06:15:15;101177.22;;;20.75
60731;BMP280;46580;52.114;11.674;2022-07-03T06:17:41;101171.50;;;20.72
60731;BMP280;46580;52.114;11.674;2022-07-03T06:20:10;101168.84;;;20.80
60731;BMP280;46580;52.114;11.674;2022-07-03T06:22:38;101173.72;;;20.83
60731;BMP280;46580;52.114;11.674;2022-07-03T06:25:04;101170.13;;;20.84
60731;BMP280;46580;52.114;11.674;2022-07-03T06:27:31;101166.19;;;20.87
60731;BMP280;46580;52.114;11.674;2022-07-03T06:29:58;101179.56;;;21.00
60731;BMP280;46580;52.114;11.674;2022-07-03T06:32:26;101169.03;;;21.16
60731;BMP280;46580;52.114;11.674;2022-07-03T06:34:52;101166.09;;;21.03
60731;BMP280;46580;52.114;11.674;2022-07-03T06:37:19;101167.34;;;21.23
60731;BMP280;46580;52.114;11.674;2022-07-03T06:40:00;101159.06;;;21.11
60731;BMP280;46580;52.114;11.674;2022-07-03T06:42:25;101161.34;;;21.36
60731;BMP280;46580;52.114;11.674;2022-07-03T06:44:51;101156.66;;;21.32
60731;BMP280;46580;52.114;11.674;2022-07-03T06:47:19;101160.03;;;21.40
60731;BMP280;46580;52.114;11.674;2022-07-03T06:49:48;101155.84;;;21.53
60731;BMP280;46580;52.114;11.674;2022-07-03T06:52:13;101153.28;;;21.45
60731;BMP280;46580;52.114;11.674;2022-07-03T06:54:40;101158.53;;;21.45
60731;BMP280;46580;52.114;11.674;2022-07-03T06:57:11;101151.16;;;21.63
60731;BMP280;46580;52.114;11.674;2022-07-03T06:59:39;101159.19;;;21.69
60731;BMP280;46580;52.114;11.674;2022-07-03T07:02:05;101148.22;;;21.88
60731;BMP280;46580;52.114;11.674;2022-07-03T07:04:34;101147.47;;;22.01
60731;BMP280;46580;52.114;11.674;2022-07-03T07:07:01;101147.81;;;22.13
60731;BMP280;46580;52.114;11.674;2022-07-03T07:09:27;101154.38;;;22.17
60731;BMP280;46580;52.114;11.674;2022-07-03T07:11:53;101151.19;;;22.21
60731;BMP280;46580;52.114;11.674;2022-07-03T07:14:19;101144.34;;;21.98
60731;BMP280;46580;52.114;11.674;2022-07-03T07:16:45;101150.75;;;22.32
60731;BMP280;46580;52.114;11.674;2022-07-03T07:19:11;101148.66;;;22.27
60731;BMP280;46580;52.114;11.674;2022-07-03T07:21:36;101139.66;;;22.58
60731;BMP280;46580;52.114;11.674;2022-07-03T07:24:02;101142.72;;;22.75
60731;BMP280;46580;52.114;11.674;2022-07-03T07:26:29;101140.78;;;22.98
60731;BMP280;46580;52.114;11.674;2022-07-03T07:28:54;101136.94;;;23.14
60731;BMP280;46580;52.114;11.674;2022-07-03T07:31:21;101144.19;;;23.27
60731;BMP280;46580;52.114;11.674;2022-07-03T07:33:47;101132.50;;;23.49
60731;BMP280;46580;52.114;11.674;2022-07-03T07:36:14;101134.06;;;23.44
60731;BMP280;46580;52.114;11.674;2022-07-03T07:38:41;101125.72;;;24.02
60731;BMP280;46580;52.114;11.674;2022-07-03T07:41:07;101128.97;;;23.84
60731;BMP280;46580;52.114;11.674;2022-07-03T07:43:33;101129.66;;;23.92
60731;BMP280;46580;52.114;11.674;2022-07-03T07:46:06;101129.50;;;24.26
60731;BMP280;46580;52.114;11.674;2022-07-03T07:48:35;101121.94;;;24.44
60731;BMP280;46580;52.114;11.674;2022-07-03T07:51:01;101117.91;;;24.48
60731;BMP280;46580;52.114;11.674;2022-07-03T07:53:27;101121.31;;;24.42
60731;BMP280;46580;52.114;11.674;2022-07-03T07:55:57;101119.63;;;24.61
60731;BMP280;46580;52.114;11.674;2022-07-03T07:58:23;101122.56;;;24.79
60731;BMP280;46580;52.114;11.674;2022-07-03T08:00:51;101128.97;;;24.64
60731;BMP280;46580;52.114;11.674;2022-07-03T08:03:36;101123.31;;;25.19
60731;BMP280;46580;52.114;11.674;2022-07-03T08:06:20;101125.22;;;25.37
60731;BMP280;46580;52.114;11.674;2022-07-03T08:08:49;101119.94;;;25.37
60731;BMP280;46580;52.114;11.674;2022-07-03T08:11:14;101113.88;;;25.56
60731;BMP280;46580;52.114;11.674;2022-07-03T08:13:42;101123.41;;;25.44
60731;BMP280;46580;52.114;11.674;2022-07-03T08:16:09;101109.03;;;25.78
60731;BMP280;46580;52.114;11.674;2022-07-03T08:18:35;101107.41;;;25.71
60731;BMP280;46580;52.114;11.674;2022-07-03T08:21:01;101117.97;;;26.03
60731;BMP280;46580;52.114;11.674;2022-07-03T08:23:28;101113.69;;;25.95
60731;BMP280;46580;52.114;11.674;2022-07-03T08:25:55;101114.50;;;25.96
60731;BMP280;46580;52.114;11.674;2022-07-03T08:28:23;101114.50;;;26.09
60731;BMP280;46580;52.114;11.674;2022-07-03T08:30:49;101111.06;;;26.14
60731;BMP280;46580;52.114;11.674;2022-07-03T08:33:15;101111.47;;;25.99
60731;BMP280;46580;52.114;11.674;2022-07-03T08:35:42;101110.25;;;25.95
60731;BMP280;46580;52.114;11.674;2022-07-03T08:38:10;101111.88;;;26.09
60731;BMP280;46580;52.114;11.674;2022-07-03T08:40:36;101107.94;;;26.43
60731;BMP280;46580;52.114;11.674;2022-07-03T08:45:30;101104.97;;;26.20
60731;BMP280;46580;52.114;11.674;2022-07-03T08:47:58;101099.22;;;26.36
60731;BMP280;46580;52.114;11.674;2022-07-03T08:52:53;101104.09;;;26.45
60731;BMP280;46580;52.114;11.674;2022-07-03T08:55:21;101103.81;;;26.72
60731;BMP280;46580;52.114;11.674;2022-07-03T08:57:49;101099.31;;;26.79
60731;BMP280;46580;52.114;11.674;2022-07-03T09:00:21;101100.81;;;26.56
60731;BMP280;46580;52.114;11.674;2022-07-03T09:02:48;101100.34;;;26.78
60731;BMP280;46580;52.114;11.674;2022-07-03T09:05:16;101107.97;;;26.98
60731;BMP280;46580;52.114;11.674;2022-07-03T09:07:50;101098.00;;;27.00
60731;BMP280;46580;52.114;11.674;2022-07-03T09:10:18;101100.16;;;27.16
60731;BMP280;46580;52.114;11.674;2022-07-03T09:12:46;101101.91;;;27.34
60731;BMP280;46580;52.114;11.674;2022-07-03T09:15:15;101098.81;;;27.37
60731;BMP280;46580;52.114;11.674;2022-07-03T09:18:05;101100.88;;;27.35
60731;BMP280;46580;52.114;11.674;2022-07-03T09:20:41;101094.81;;;27.28
60731;BMP280;46580;52.114;11.674;2022-07-03T09:23:19;101093.72;;;27.42
60731;BMP280;46580;52.114;11.674;2022-07-03T09:26:00;101087.78;;;27.70
60731;BMP280;46580;52.114;11.674;2022-07-03T09:28:48;101084.66;;;27.56
60731;BMP280;46580;52.114;11.674;2022-07-03T09:31:19;101089.75;;;27.81
60731;BMP280;46580;52.114;11.674;2022-07-03T09:34:00;101086.78;;;27.71
60731;BMP280;46580;52.114;11.674;2022-07-03T09:36:39;101084.69;;;27.80
60731;BMP280;46580;52.114;11.674;2022-07-03T09:39:25;101084.28;;;28.00
60731;BMP280;46580;52.114;11.674;2022-07-03T09:42:03;101070.16;;;28.47
60731;BMP280;46580;52.114;11.674;2022-07-03T09:44:40;101064.75;;;28.18
60731;BMP280;46580;52.114;11.674;2022-07-03T09:47:14;101064.28;;;28.04
60731;BMP280;46580;52.114;11.674;2022-07-03T09:49:53;101059.50;;;28.12
60731;BMP280;46580;52.114;11.674;2022-07-03T09:55:12;101067.97;;;28.20
60731;BMP280;46580;52.114;11.674;2022-07-03T09:57:57;101060.03;;;28.20
60731;BMP280;46580;52.114;11.674;2022-07-03T10:00:31;101067.94;;;28.62
60731;BMP280;46580;52.114;11.674;2022-07-03T10:03:08;101061.72;;;29.03
60731;BMP280;46580;52.114;11.674;2022-07-03T10:05:40;101054.06;;;29.24
60731;BMP280;46580;52.114;11.674;2022-07-03T10:08:11;101048.81;;;29.46
60731;BMP280;46580;52.114;11.674;2022-07-03T10:10:43;101047.56;;;29.49
60731;BMP280;46580;52.114;11.674;2022-07-03T10:13:10;101041.44;;;29.48
60731;BMP280;46580;52.114;11.674;2022-07-03T10:15:37;101043.66;;;29.62
60731;BMP280;46580;52.114;11.674;2022-07-03T10:18:06;101042.47;;;29.36
60731;BMP280;46580;52.114;11.674;2022-07-03T10:20:39;101039.03;;;29.69
60731;BMP280;46580;52.114;11.674;2022-07-03T10:23:05;101045.75;;;29.83
60731;BMP280;46580;52.114;11.674;2022-07-03T10:25:31;101045.06;;;29.76
60731;BMP280;46580;52.114;11.674;2022-07-03T10:27:58;101044.44;;;29.51
60731;BMP280;46580;52.114;11.674;2022-07-03T10:30:27;101035.00;;;29.67
60731;BMP280;46580;52.114;11.674;2022-07-03T10:32:55;101031.19;;;29.74
60731;BMP280;46580;52.114;11.674;2022-07-03T10:35:32;101023.47;;;29.95
60731;BMP280;46580;52.114;11.674;2022-07-03T10:43:48;101023.22;;;30.30
60731;BMP280;46580;52.114;11.674;2022-07-03T10:46:33;101021.03;;;30.16
60731;BMP280;46580;52.114;11.674;2022-07-03T10:51:58;101003.97;;;30.12
60731;BMP280;46580;52.114;11.674;2022-07-03T10:54:28;101005.56;;;30.13
60731;BMP280;46580;52.114;11.674;2022-07-03T11:07:42;101010.94;;;30.40
60731;BMP280;46580;52.114;11.674;2022-07-03T11:13:08;100995.69;;;30.74
60731;BMP280;46580;52.114;11.674;2022-07-03T11:15:46;101009.34;;;30.39
60731;BMP280;46580;52.114;11.674;2022-07-03T11:25:40;100981.34;;;30.59
60731;BMP280;46580;52.114;11.674;2022-07-03T11:28:55;100979.84;;;30.52
60731;BMP280;46580;52.114;11.674;2022-07-03T11:36:25;100971.34;;;30.27
60731;BMP280;46580;52.114;11.674;2022-07-03T11:41:26;100969.69;;;29.99
60731;BMP280;46580;52.114;11.674;2022-07-03T11:43:55;100970.34;;;30.06
60731;BMP280;46580;52.114;11.674;2022-07-03T11:46:25;100968.19;;;30.03
60731;BMP280;46580;52.114;11.674;2022-07-03T12:04:17;100963.34;;;30.50
60731;BMP280;46580;52.114;11.674;2022-07-03T12:06:56;100960.81;;;31.14
60731;BMP280;46580;52.114;11.674;2022-07-03T12:09:28;100954.59;;;31.41
60731;BMP280;46580;52.114;11.674;2022-07-03T12:14:44;100965.31;;;30.98
60731;BMP280;46580;52.114;11.674;2022-07-03T12:17:18;100952.78;;;31.41
60731;BMP280;46580;52.114;11.674;2022-07-03T12:20:00;100944.59;;;31.64
60731;BMP280;46580;52.114;11.674;2022-07-03T12:22:31;100952.53;;;31.96
60731;BMP280;46580;52.114;11.674;2022-07-03T12:27:51;100941.47;;;31.02
60731;BMP280;46580;52.114;11.674;2022-07-03T12:30:21;100940.41;;;31.36
60731;BMP280;46580;52.114;11.674;2022-07-03T12:32:53;100946.09;;;31.92
60731;BMP280;46580;52.114;11.674;2022-07-03T12:35:25;100937.50;;;32.06
60731;BMP280;46580;52.114;11.674;2022-07-03T12:37:58;100936.16;;;32.50
60731;BMP280;46580;52.114;11.674;2022-07-03T12:40:24;100934.63;;;32.33
60731;BMP280;46580;52.114;11.674;2022-07-03T12:42:55;100940.91;;;32.95
60731;BMP280;46580;52.114;11.674;2022-07-03T12:45:28;100931.91;;;33.01
60731;BMP280;46580;52.114;11.674;2022-07-03T12:48:05;100924.66;;;32.97
60731;BMP280;46580;52.114;11.674;2022-07-03T12:50:50;100919.63;;;33.00
60731;BMP280;46580;52.114;11.674;2022-07-03T12:53:32;100917.38;;;33.54
60731;BMP280;46580;52.114;11.674;2022-07-03T12:56:05;100920.84;;;33.24
60731;BMP280;46580;52.114;11.674;2022-07-03T12:58:37;100927.88;;;32.26
60731;BMP280;46580;52.114;11.674;2022-07-03T13:01:30;100923.03;;;32.23
60731;BMP280;46580;52.114;11.674;2022-07-03T13:04:01;100922.13;;;31.76
60731;BMP280;46580;52.114;11.674;2022-07-03T13:06:29;100921.84;;;32.14
60731;BMP280;46580;52.114;11.674;2022-07-03T13:08:57;100918.22;;;32.67
60731;BMP280;46580;52.114;11.674;2022-07-03T13:11:29;100910.75;;;32.69
60731;BMP280;46580;52.114;11.674;2022-07-03T13:14:14;100904.44;;;32.75
60731;BMP280;46580;52.114;11.674;2022-07-03T13:16:46;100914.19;;;31.97
60731;BMP280;46580;52.114;11.674;2022-07-03T13:19:25;100916.91;;;32.23
60731;BMP280;46580;52.114;11.674;2022-07-03T13:21:56;100913.13;;;32.91
60731;BMP280;46580;52.114;11.674;2022-07-03T13:24:24;100909.63;;;32.13
60731;BMP280;46580;52.114;11.674;2022-07-03T13:26:52;100907.22;;;31.75
60731;BMP280;46580;52.114;11.674;2022-07-03T13:29:19;100911.03;;;31.63
60731;BMP280;46580;52.114;11.674;2022-07-03T13:31:47;100901.47;;;31.14
60731;BMP280;46580;52.114;11.674;2022-07-03T13:34:15;100907.00;;;30.80
60731;BMP280;46580;52.114;11.674;2022-07-03T13:36:42;100898.66;;;31.20
60731;BMP280;46580;52.114;11.674;2022-07-03T13:39:10;100901.56;;;31.51
60731;BMP280;46580;52.114;11.674;2022-07-03T13:41:38;100902.09;;;32.11
60731;BMP280;46580;52.114;11.674;2022-07-03T13:44:09;100912.28;;;31.76
60731;BMP280;46580;52.114;11.674;2022-07-03T13:46:35;100890.81;;;32.46
60731;BMP280;46580;52.114;11.674;2022-07-03T13:49:03;100893.97;;;32.94
60731;BMP280;46580;52.114;11.674;2022-07-03T13:51:30;100892.84;;;33.26
60731;BMP280;46580;52.114;11.674;2022-07-03T13:53:57;100881.75;;;33.39
60731;BMP280;46580;52.114;11.674;2022-07-03T13:56:24;100889.97;;;32.97
60731;BMP280;46580;52.114;11.674;2022-07-03T13:58:51;100887.72;;;33.15
60731;BMP280;46580;52.114;11.674;2022-07-03T14:01:25;100890.47;;;33.29
60731;BMP280;46580;52.114;11.674;2022-07-03T14:03:52;100879.66;;;33.10
60731;BMP280;46580;52.114;11.674;2022-07-03T14:38:43;100873.56;;;31.48
60731;BMP280;46580;52.114;11.674;2022-07-03T14:41:14;100874.41;;;31.91
60731;BMP280;46580;52.114;11.674;2022-07-03T14:43:41;100863.94;;;31.84
60731;BMP280;46580;52.114;11.674;2022-07-03T14:46:07;100871.16;;;32.05
60731;BMP280;46580;52.114;11.674;2022-07-03T14:48:32;100862.16;;;32.36
60731;BMP280;46580;52.114;11.674;2022-07-03T14:50:59;100861.09;;;32.37
60731;BMP280;46580;52.114;11.674;2022-07-03T14:53:25;100863.34;;;31.98
60731;BMP280;46580;52.114;11.674;2022-07-03T14:55:51;100875.81;;;31.93
60731;BMP280;46580;52.114;11.674;2022-07-03T14:58:25;100868.38;;;32.42
60731;BMP280;46580;52.114;11.674;2022-07-03T15:00:56;100873.41;;;32.17
60731;BMP280;46580;52.114;11.674;2022-07-03T15:03:33;100859.81;;;31.93
60731;BMP280;46580;52.114;11.674;2022-07-03T15:06:01;100856.13;;;31.41
60731;BMP280;46580;52.114;11.674;2022-07-03T15:11:14;100849.53;;;30.90
60731;BMP280;46580;52.114;11.674;2022-07-03T15:14:04;100846.56;;;30.60
60731;BMP280;46580;52.114;11.674;2022-07-03T15:16:32;100851.72;;;30.50
60731;BMP280;46580;52.114;11.674;2022-07-03T15:19:00;100842.06;;;30.60
60731;BMP280;46580;52.114;11.674;2022-07-03T15:21:30;100828.63;;;30.82
60731;BMP280;46580;52.114;11.674;2022-07-03T15:24:04;100835.25;;;31.12
60731;BMP280;46580;52.114;11.674;2022-07-03T15:26:32;100828.88;;;31.13
60731;BMP280;46580;52.114;11.674;2022-07-03T15:29:01;100837.78;;;31.39
60731;BMP280;46580;52.114;11.674;2022-07-03T15:31:29;100838.69;;;31.87
60731;BMP280;46580;52.114;11.674;2022-07-03T15:34:04;100827.31;;;32.17
60731;BMP280;46580;52.114;11.674;2022-07-03T15:39:30;100827.16;;;32.28
60731;BMP280;46580;52.114;11.674;2022-07-03T15:48:03;100821.28;;;32.26
60731;BMP280;46580;52.114;11.674;2022-07-03T15:51:07;100818.06;;;32.50
60731;BMP280;46580;52.114;11.674;2022-07-03T15:53:38;100815.97;;;32.26
60731;BMP280;46580;52.114;11.674;2022-07-03T15:56:05;100816.47;;;32.49
60731;BMP280;46580;52.114;11.674;2022-07-03T15:58:35;100819.72;;;32.30
60731;BMP280;46580;52.114;11.674;2022-07-03T16:01:07;100816.38;;;32.13
60731;BMP280;46580;52.114;11.674;2022-07-03T16:04:10;100818.72;;;31.89
60731;BMP280;46580;52.114;11.674;2022-07-03T16:06:40;100828.91;;;31.92
60731;BMP280;46580;52.114;11.674;2022-07-03T16:09:07;100812.13;;;31.92
60731;BMP280;46580;52.114;11.674;2022-07-03T16:11:36;100815.19;;;31.42
60731;BMP280;46580;52.114;11.674;2022-07-03T16:14:05;100803.34;;;31.12
60731;BMP280;46580;52.114;11.674;2022-07-03T16:16:32;100810.22;;;31.29
60731;BMP280;46580;52.114;11.674;2022-07-03T16:19:04;100813.91;;;31.28
60731;BMP280;46580;52.114;11.674;2022-07-03T16:21:30;100814.59;;;30.87